sensor_id;sensor_type;location;lat;lon;timestamp;P1;P2;P0
55459;PMS5003;41326;45.302;-122.946;2022-08-25T00:01:11;4;4;
55459;PMS5003;41326;45.302;-122.946;2022-08-25T00:03:41;3;3;
55459;PMS5003;41326;45.302;-122.946;2022-08-25T00:06:11;5;5;
55459;PMS5003;41326;45.302;-122.946;2022-08-25T00:08:41;4;4;
55459;PMS5003;41326;45.302;-122.946;2022-08-25T00:11:12;5;5;
55459;PMS5003;41326;45.302;-122.946;2022-08-25T00:13:43;5;5;
55459;PMS5003;41326;45.302;-122.946;2022-08-25T00:16:12;3;3;
55459;PMS5003;41326;45.302;-122.946;2022-08-25T00:18:42;4;3;
55459;PMS5003;41326;45.302;-122.946;2022-08-25T00:21:13;4;4;
55459;PMS5003;41326;45.302;-122.946;2022-08-25T00:23:43;6;5;
55459;PMS5003;41326;45.302;-122.946;2022-08-25T00:26:13;6;6;
55459;PMS5003;41326;45.302;-122.946;2022-08-25T00:28:44;7;6;
55459;PMS5003;41326;45.302;-122.946;2022-08-25T00:31:15;10;10;
55459;PMS5003;41326;45.302;-122.946;2022-08-25T00:33:44;9;6;
55459;PMS5003;41326;45.302;-122.946;2022-08-25T00:36:15;5;5;
55459;PMS5003;41326;45.302;-122.946;2022-08-25T00:38:46;5;4;
55459;PMS5003;41326;45.302;-122.946;2022-08-25T00:41:17;5;5;
55459;PMS5003;41326;45.302;-122.946;2022-08-25T00:43:47;6;4;
55459;PMS5003;41326;45.302;-122.946;2022-08-25T00:46:16;5;4;
55459;PMS5003;41326;45.302;-122.946;2022-08-25T00:48:46;5;5;
55459;PMS5003;41326;45.302;-122.946;2022-08-25T00:51:18;5;4;
55459;PMS5003;41326;45.302;-122.946;2022-08-25T00:53:46;5;5;
55459;PMS5003;41326;45.302;-122.946;2022-08-25T00:56:17;9;9;
55459;PMS5003;41326;45.302;-122.946;2022-08-25T00:58:47;6;5;
55459;PMS5003;41326;45.302;-122.946;2022-08-25T01:01:18;6;5;
55459;PMS5003;41326;45.302;-122.946;2022-08-25T01:03:48;8;5;
55459;PMS5003;41326;45.302;-122.946;2022-08-25T01:06:18;9;5;
55459;PMS5003;41326;45.302;-122.946;2022-08-25T01:08:48;6;5;
55459;PMS5003;41326;45.302;-122.946;2022-08-25T01:11:18;5;4;
55459;PMS5003;41326;45.302;-122.946;2022-08-25T01:13:52;4;4;
55459;PMS5003;41326;45.302;-122.946;2022-08-25T01:16:19;5;5;
55459;PMS5003;41326;45.302;-122.946;2022-08-25T01:18:51;4;4;
55459;PMS5003;41326;45.302;-122.946;2022-08-25T01:21:21;5;5;
55459;PMS5003;41326;45.302;-122.946;2022-08-25T01:23:50;6;5;
55459;PMS5003;41326;45.302;-122.946;2022-08-25T01:26:21;9;6;
55459;PMS5003;41326;45.302;-122.946;2022-08-25T01:28:51;4;4;
55459;PMS5003;41326;45.302;-122.946;2022-08-25T01:31:21;4;4;
55459;PMS5003;41326;45.302;-122.946;2022-08-25T01:33:52;4;4;
55459;PMS5003;41326;45.302;-122.946;2022-08-25T01:36:22;8;7;
55459;PMS5003;41326;45.302;-122.946;2022-08-25T01:38:52;6;5;
55459;PMS5003;41326;45.302;-122.946;2022-08-25T01:42:33;7;5;
55459;PMS5003;41326;45.302;-122.946;2022-08-25T01:44:59;6;5;
55459;PMS5003;41326;45.302;-122.946;2022-08-25T01:47:30;4;4;
55459;PMS5003;41326;45.302;-122.946;2022-08-25T01:50:00;7;2;
55459;PMS5003;41326;45.302;-122.946;2022-08-25T01:52:32;4;4;
55459;PMS5003;41326;45.302;-122.946;2022-08-25T01:55:01;3;3;
55459;PMS5003;41326;45.302;-122.946;2022-08-25T01:57:32;5;3;
55459;PMS5003;41326;45.302;-122.946;2022-08-25T02:00:04;4;4;
55459;PMS5003;41326;45.302;-122.946;2022-08-25T02:02:33;3;3;
55459;PMS5003;41326;45.302;-122.946;2022-08-25T02:05:03;5;4;
55459;PMS5003;41326;45.302;-122.946;2022-08-25T02:07:33;4;4;
55459;PMS5003;41326;45.302;-122.946;2022-08-25T02:10:04;3;3;
55459;PMS5003;41326;45.302;-122.946;2022-08-25T02:12:33;5;4;
55459;PMS5003;41326;45.302;-122.946;2022-08-25T02:15:06;3;3;
55459;PMS5003;41326;45.302;-122.946;2022-08-25T02:17:35;5;5;
55459;PMS5003;41326;45.302;-122.946;2022-08-25T02:20:05;6;5;
55459;PMS5003;41326;45.302;-122.946;2022-08-25T02:22:40;4;3;
55459;PMS5003;41326;45.302;-122.946;2022-08-25T02:25:10;3;3;
55459;PMS5003;41326;45.302;-122.946;2022-08-25T02:27:41;6;5;
55459;PMS5003;41326;45.302;-122.946;2022-08-25T02:30:11;6;4;
55459;PMS5003;41326;45.302;-122.946;2022-08-25T02:32:41;6;6;
55459;PMS5003;41326;45.302;-122.946;2022-08-25T02:35:12;3;2;
55459;PMS5003;41326;45.302;-122.946;2022-08-25T02:37:42;4;4;
55459;PMS5003;41326;45.302;-122.946;2022-08-25T02:40:12;3;3;
55459;PMS5003;41326;45.302;-122.946;2022-08-25T02:42:42;5;5;
55459;PMS5003;41326;45.302;-122.946;2022-08-25T02:45:12;3;3;
55459;PMS5003;41326;45.302;-122.946;2022-08-25T02:47:43;8;3;
55459;PMS5003;41326;45.302;-122.946;2022-08-25T02:50:13;4;3;
55459;PMS5003;41326;45.302;-122.946;2022-08-25T02:52:43;2;2;
55459;PMS5003;41326;45.302;-122.946;2022-08-25T02:55:14;4;2;
55459;PMS5003;41326;45.302;-122.946;2022-08-25T02:57:44;3;1;
55459;PMS5003;41326;45.302;-122.946;2022-08-25T03:00:15;2;2;
55459;PMS5003;41326;45.302;-122.946;2022-08-25T03:02:45;4;2;
55459;PMS5003;41326;45.302;-122.946;2022-08-25T03:05:15;4;3;
55459;PMS5003;41326;45.302;-122.946;2022-08-25T03:07:45;2;0;
55459;PMS5003;41326;45.302;-122.946;2022-08-25T03:10:16;2;2;
55459;PMS5003;41326;45.302;-122.946;2022-08-25T03:12:46;2;2;
55459;PMS5003;41326;45.302;-122.946;2022-08-25T03:15:17;2;2;
55459;PMS5003;41326;45.302;-122.946;2022-08-25T03:17:48;2;2;
55459;PMS5003;41326;45.302;-122.946;2022-08-25T03:20:18;2;1;
55459;PMS5003;41326;45.302;-122.946;2022-08-25T03:22:49;2;1;
55459;PMS5003;41326;45.302;-122.946;2022-08-25T03:25:19;3;2;
55459;PMS5003;41326;45.302;-122.946;2022-08-25T03:27:50;3;3;
55459;PMS5003;41326;45.302;-122.946;2022-08-25T03:30:20;0;0;
55459;PMS5003;41326;45.302;-122.946;2022-08-25T03:32:50;1;1;
55459;PMS5003;41326;45.302;-122.946;2022-08-25T03:35:20;5;1;
55459;PMS5003;41326;45.302;-122.946;2022-08-25T03:37:54;0;0;
55459;PMS5003;41326;45.302;-122.946;2022-08-25T03:40:21;1;1;
55459;PMS5003;41326;45.302;-122.946;2022-08-25T03:42:51;2;2;
55459;PMS5003;41326;45.302;-122.946;2022-08-25T03:45:22;2;2;
55459;PMS5003;41326;45.302;-122.946;2022-08-25T03:47:52;1;1;
55459;PMS5003;41326;45.302;-122.946;2022-08-25T03:50:22;1;1;
55459;PMS5003;41326;45.302;-122.946;2022-08-25T03:52:53;0;0;
55459;PMS5003;41326;45.302;-122.946;2022-08-25T03:55:23;2;1;
55459;PMS5003;41326;45.302;-122.946;2022-08-25T03:57:53;1;1;
55459;PMS5003;41326;45.302;-122.946;2022-08-25T04:00:23;0;0;
55459;PMS5003;41326;45.302;-122.946;2022-08-25T04:02:54;1;1;
55459;PMS5003;41326;45.302;-122.946;2022-08-25T04:05:24;1;1;
55459;PMS5003;41326;45.302;-122.946;2022-08-25T04:07:54;0;0;
55459;PMS5003;41326;45.302;-122.946;2022-08-25T04:10:25;0;0;
55459;PMS5003;41326;45.302;-122.946;2022-08-25T04:12:56;0;0;
55459;PMS5003;41326;45.302;-122.946;2022-08-25T04:15:26;0;0;
55459;PMS5003;41326;45.302;-122.946;2022-08-25T04:17:56;0;0;
55459;PMS5003;41326;45.302;-122.946;2022-08-25T04:20:26;0;0;
55459;PMS5003;41326;45.302;-122.946;2022-08-25T04:22:56;0;0;
55459;PMS5003;41326;45.302;-122.946;2022-08-25T04:25:27;1;1;
55459;PMS5003;41326;45.302;-122.946;2022-08-25T04:27:57;1;1;
55459;PMS5003;41326;45.302;-122.946;2022-08-25T04:30:27;0;0;
55459;PMS5003;41326;45.302;-122.946;2022-08-25T04:32:58;0;0;
55459;PMS5003;41326;45.302;-122.946;2022-08-25T04:35:29;0;0;
55459;PMS5003;41326;45.302;-122.946;2022-08-25T04:37:59;0;0;
55459;PMS5003;41326;45.302;-122.946;2022-08-25T04:40:30;0;0;
55459;PMS5003;41326;45.302;-122.946;2022-08-25T04:43:00;0;0;
55459;PMS5003;41326;45.302;-122.946;2022-08-25T04:45:30;0;0;
55459;PMS5003;41326;45.302;-122.946;2022-08-25T04:48:01;2;1;
55459;PMS5003;41326;45.302;-122.946;2022-08-25T04:50:31;0;0;
55459;PMS5003;41326;45.302;-122.946;2022-08-25T04:53:01;0;0;
55459;PMS5003;41326;45.302;-122.946;2022-08-25T04:55:32;0;0;
55459;PMS5003;41326;45.302;-122.946;2022-08-25T04:58:02;0;0;
55459;PMS5003;41326;45.302;-122.946;2022-08-25T05:00:33;0;0;
55459;PMS5003;41326;45.302;-122.946;2022-08-25T05:03:03;1;1;
55459;PMS5003;41326;45.302;-122.946;2022-08-25T05:05:35;3;2;
55459;PMS5003;41326;45.302;-122.946;2022-08-25T05:08:04;2;2;
55459;PMS5003;41326;45.302;-122.946;2022-08-25T05:10:37;1;1;
55459;PMS5003;41326;45.302;-122.946;2022-08-25T05:13:04;3;1;
55459;PMS5003;41326;45.302;-122.946;2022-08-25T05:15:34;1;1;
55459;PMS5003;41326;45.302;-122.946;2022-08-25T05:18:04;0;0;
55459;PMS5003;41326;45.302;-122.946;2022-08-25T05:20:35;3;1;
55459;PMS5003;41326;45.302;-122.946;2022-08-25T05:23:05;1;1;
55459;PMS5003;41326;45.302;-122.946;2022-08-25T05:25:35;1;1;
55459;PMS5003;41326;45.302;-122.946;2022-08-25T05:28:06;2;0;
55459;PMS5003;41326;45.302;-122.946;2022-08-25T05:30:37;1;0;
55459;PMS5003;41326;45.302;-122.946;2022-08-25T05:33:07;0;0;
55459;PMS5003;41326;45.302;-122.946;2022-08-25T05:35:37;0;0;
55459;PMS5003;41326;45.302;-122.946;2022-08-25T05:38:07;4;2;
55459;PMS5003;41326;45.302;-122.946;2022-08-25T05:40:37;1;0;
55459;PMS5003;41326;45.302;-122.946;2022-08-25T05:43:08;0;0;
55459;PMS5003;41326;45.302;-122.946;2022-08-25T05:45:38;0;0;
55459;PMS5003;41326;45.302;-122.946;2022-08-25T05:48:09;1;1;
55459;PMS5003;41326;45.302;-122.946;2022-08-25T05:50:39;1;1;
55459;PMS5003;41326;45.302;-122.946;2022-08-25T05:53:09;0;0;
55459;PMS5003;41326;45.302;-122.946;2022-08-25T05:55:43;0;0;
55459;PMS5003;41326;45.302;-122.946;2022-08-25T05:58:10;1;1;
55459;PMS5003;41326;45.302;-122.946;2022-08-25T06:00:41;0;0;
55459;PMS5003;41326;45.302;-122.946;2022-08-25T06:03:12;1;1;
55459;PMS5003;41326;45.302;-122.946;2022-08-25T06:05:42;0;0;
55459;PMS5003;41326;45.302;-122.946;2022-08-25T06:08:12;0;0;
55459;PMS5003;41326;45.302;-122.946;2022-08-25T06:10:42;1;1;
55459;PMS5003;41326;45.302;-122.946;2022-08-25T06:13:13;0;0;
55459;PMS5003;41326;45.302;-122.946;2022-08-25T06:15:43;1;0;
55459;PMS5003;41326;45.302;-122.946;2022-08-25T06:18:13;1;1;
55459;PMS5003;41326;45.302;-122.946;2022-08-25T06:20:44;0;0;
55459;PMS5003;41326;45.302;-122.946;2022-08-25T06:23:14;0;0;
55459;PMS5003;41326;45.302;-122.946;2022-08-25T06:25:47;0;0;
55459;PMS5003;41326;45.302;-122.946;2022-08-25T06:28:15;0;0;
55459;PMS5003;41326;45.302;-122.946;2022-08-25T06:30:45;0;0;
55459;PMS5003;41326;45.302;-122.946;2022-08-25T06:33:15;1;0;
55459;PMS5003;41326;45.302;-122.946;2022-08-25T06:35:46;0;0;
55459;PMS5003;41326;45.302;-122.946;2022-08-25T06:38:16;0;0;
55459;PMS5003;41326;45.302;-122.946;2022-08-25T06:40:47;0;0;
55459;PMS5003;41326;45.302;-122.946;2022-08-25T06:43:17;0;0;
55459;PMS5003;41326;45.302;-122.946;2022-08-25T06:45:47;1;0;
55459;PMS5003;41326;45.302;-122.946;2022-08-25T06:48:18;0;0;
55459;PMS5003;41326;45.302;-122.946;2022-08-25T06:50:48;0;0;
55459;PMS5003;41326;45.302;-122.946;2022-08-25T06:53:18;0;0;
55459;PMS5003;41326;45.302;-122.946;2022-08-25T06:58:19;2;1;
55459;PMS5003;41326;45.302;-122.946;2022-08-25T07:00:50;2;0;
55459;PMS5003;41326;45.302;-122.946;2022-08-25T07:03:21;0;0;
55459;PMS5003;41326;45.302;-122.946;2022-08-25T07:05:51;0;0;
55459;PMS5003;41326;45.302;-122.946;2022-08-25T07:08:21;0;0;
55459;PMS5003;41326;45.302;-122.946;2022-08-25T07:10:51;0;0;
55459;PMS5003;41326;45.302;-122.946;2022-08-25T07:13:22;0;0;
55459;PMS5003;41326;45.302;-122.946;2022-08-25T07:15:52;0;0;
55459;PMS5003;41326;45.302;-122.946;2022-08-25T07:18:22;1;0;
55459;PMS5003;41326;45.302;-122.946;2022-08-25T07:20:53;0;0;
55459;PMS5003;41326;45.302;-122.946;2022-08-25T07:23:24;1;0;
55459;PMS5003;41326;45.302;-122.946;2022-08-25T07:25:54;0;0;
55459;PMS5003;41326;45.302;-122.946;2022-08-25T07:28:24;0;0;
55459;PMS5003;41326;45.302;-122.946;2022-08-25T07:30:54;1;0;
55459;PMS5003;41326;45.302;-122.946;2022-08-25T07:33:24;0;0;
55459;PMS5003;41326;45.302;-122.946;2022-08-25T07:35:54;0;0;
55459;PMS5003;41326;45.302;-122.946;2022-08-25T07:38:24;1;0;
55459;PMS5003;41326;45.302;-122.946;2022-08-25T07:40:59;0;0;
55459;PMS5003;41326;45.302;-122.946;2022-08-25T07:43:25;1;1;
55459;PMS5003;41326;45.302;-122.946;2022-08-25T07:45:56;1;0;
55459;PMS5003;41326;45.302;-122.946;2022-08-25T07:48:26;0;0;
55459;PMS5003;41326;45.302;-122.946;2022-08-25T07:50:56;0;0;
55459;PMS5003;41326;45.302;-122.946;2022-08-25T07:53:26;0;0;
55459;PMS5003;41326;45.302;-122.946;2022-08-25T07:55:57;0;0;
55459;PMS5003;41326;45.302;-122.946;2022-08-25T07:58:27;0;0;
55459;PMS5003;41326;45.302;-122.946;2022-08-25T08:00:57;1;0;
55459;PMS5003;41326;45.302;-122.946;2022-08-25T08:03:27;0;0;
55459;PMS5003;41326;45.302;-122.946;2022-08-25T08:05:57;0;0;
55459;PMS5003;41326;45.302;-122.946;2022-08-25T08:08:28;0;0;
55459;PMS5003;41326;45.302;-122.946;2022-08-25T08:10:58;0;0;
55459;PMS5003;41326;45.302;-122.946;2022-08-25T08:13:28;0;0;
55459;PMS5003;41326;45.302;-122.946;2022-08-25T08:15:58;0;0;
55459;PMS5003;41326;45.302;-122.946;2022-08-25T08:18:29;0;0;
55459;PMS5003;41326;45.302;-122.946;2022-08-25T08:20:59;0;0;
55459;PMS5003;41326;45.302;-122.946;2022-08-25T08:23:29;0;0;
55459;PMS5003;41326;45.302;-122.946;2022-08-25T08:26:00;0;0;
55459;PMS5003;41326;45.302;-122.946;2022-08-25T08:28:30;0;0;
55459;PMS5003;41326;45.302;-122.946;2022-08-25T08:31:00;0;0;
55459;PMS5003;41326;45.302;-122.946;2022-08-25T08:33:31;0;0;
55459;PMS5003;41326;45.302;-122.946;2022-08-25T08:36:03;0;0;
55459;PMS5003;41326;45.302;-122.946;2022-08-25T08:38:32;0;0;
55459;PMS5003;41326;45.302;-122.946;2022-08-25T08:41:06;0;0;
55459;PMS5003;41326;45.302;-122.946;2022-08-25T08:43:32;0;0;
55459;PMS5003;41326;45.302;-122.946;2022-08-25T08:46:03;0;0;
55459;PMS5003;41326;45.302;-122.946;2022-08-25T08:51:06;0;0;
55459;PMS5003;41326;45.302;-122.946;2022-08-25T08:53:38;0;0;
55459;PMS5003;41326;45.302;-122.946;2022-08-25T08:56:05;0;0;
55459;PMS5003;41326;45.302;-122.946;2022-08-25T08:58:36;0;0;
55459;PMS5003;41326;45.302;-122.946;2022-08-25T09:01:05;0;0;
55459;PMS5003;41326;45.302;-122.946;2022-08-25T09:03:36;0;0;
55459;PMS5003;41326;45.302;-122.946;2022-08-25T09:06:06;0;0;
55459;PMS5003;41326;45.302;-122.946;2022-08-25T09:08:36;0;0;
55459;PMS5003;41326;45.302;-122.946;2022-08-25T09:11:08;0;0;
55459;PMS5003;41326;45.302;-122.946;2022-08-25T09:13:40;0;0;
55459;PMS5003;41326;45.302;-122.946;2022-08-25T09:16:09;0;0;
55459;PMS5003;41326;45.302;-122.946;2022-08-25T09:18:38;0;0;
55459;PMS5003;41326;45.302;-122.946;2022-08-25T09:21:08;0;0;
55459;PMS5003;41326;45.302;-122.946;2022-08-25T09:23:41;0;0;
55459;PMS5003;41326;45.302;-122.946;2022-08-25T09:26:14;0;0;
55459;PMS5003;41326;45.302;-122.946;2022-08-25T09:28:39;0;0;
55459;PMS5003;41326;45.302;-122.946;2022-08-25T09:31:11;0;0;
55459;PMS5003;41326;45.302;-122.946;2022-08-25T09:33:39;0;0;
55459;PMS5003;41326;45.302;-122.946;2022-08-25T09:36:10;0;0;
55459;PMS5003;41326;45.302;-122.946;2022-08-25T09:38:40;0;0;
55459;PMS5003;41326;45.302;-122.946;2022-08-25T09:41:10;0;0;
55459;PMS5003;41326;45.302;-122.946;2022-08-25T09:43:41;0;0;
55459;PMS5003;41326;45.302;-122.946;2022-08-25T09:46:12;0;0;
55459;PMS5003;41326;45.302;-122.946;2022-08-25T09:48:43;0;0;
55459;PMS5003;41326;45.302;-122.946;2022-08-25T09:51:16;0;0;
55459;PMS5003;41326;45.302;-122.946;2022-08-25T09:53:43;0;0;
55459;PMS5003;41326;45.302;-122.946;2022-08-25T09:56:13;0;0;
55459;PMS5003;41326;45.302;-122.946;2022-08-25T09:58:43;0;0;
55459;PMS5003;41326;45.302;-122.946;2022-08-25T10:01:14;0;0;
55459;PMS5003;41326;45.302;-122.946;2022-08-25T10:06:14;0;0;
55459;PMS5003;41326;45.302;-122.946;2022-08-25T10:11:29;0;0;
55459;PMS5003;41326;45.302;-122.946;2022-08-25T10:13:47;0;0;
55459;PMS5003;41326;45.302;-122.946;2022-08-25T10:16:21;0;0;
55459;PMS5003;41326;45.302;-122.946;2022-08-25T10:18:46;0;0;
55459;PMS5003;41326;45.302;-122.946;2022-08-25T10:21:16;0;0;
55459;PMS5003;41326;45.302;-122.946;2022-08-25T10:23:47;0;0;
55459;PMS5003;41326;45.302;-122.946;2022-08-25T10:26:21;0;0;
55459;PMS5003;41326;45.302;-122.946;2022-08-25T10:28:52;0;0;
55459;PMS5003;41326;45.302;-122.946;2022-08-25T10:31:18;0;0;
55459;PMS5003;41326;45.302;-122.946;2022-08-25T10:33:52;0;0;
55459;PMS5003;41326;45.302;-122.946;2022-08-25T10:36:19;0;0;
55459;PMS5003;41326;45.302;-122.946;2022-08-25T10:38:50;0;0;
55459;PMS5003;41326;45.302;-122.946;2022-08-25T10:41:25;0;0;
55459;PMS5003;41326;45.302;-122.946;2022-08-25T10:43:52;0;0;
55459;PMS5003;41326;45.302;-122.946;2022-08-25T10:46:22;0;0;
55459;PMS5003;41326;45.302;-122.946;2022-08-25T10:48:51;0;0;
55459;PMS5003;41326;45.302;-122.946;2022-08-25T10:51:26;0;0;
55459;PMS5003;41326;45.302;-122.946;2022-08-25T10:53:52;1;0;
55459;PMS5003;41326;45.302;-122.946;2022-08-25T10:56:22;0;0;
55459;PMS5003;41326;45.302;-122.946;2022-08-25T10:58:57;3;1;
55459;PMS5003;41326;45.302;-122.946;2022-08-25T11:02:35;3;1;
55459;PMS5003;41326;45.302;-122.946;2022-08-25T11:05:01;3;2;
55459;PMS5003;41326;45.302;-122.946;2022-08-25T11:07:31;3;2;
55459;PMS5003;41326;45.302;-122.946;2022-08-25T11:10:02;1;1;
55459;PMS5003;41326;45.302;-122.946;2022-08-25T11:12:31;4;2;
55459;PMS5003;41326;45.302;-122.946;2022-08-25T11:15:02;8;5;
55459;PMS5003;41326;45.302;-122.946;2022-08-25T11:17:33;8;6;
55459;PMS5003;41326;45.302;-122.946;2022-08-25T11:20:04;8;7;
55459;PMS5003;41326;45.302;-122.946;2022-08-25T11:22:34;12;5;
55459;PMS5003;41326;45.302;-122.946;2022-08-25T11:25:06;4;3;
55459;PMS5003;41326;45.302;-122.946;2022-08-25T11:27:36;4;3;
55459;PMS5003;41326;45.302;-122.946;2022-08-25T11:30:06;3;3;
55459;PMS5003;41326;45.302;-122.946;2022-08-25T11:32:35;3;3;
55459;PMS5003;41326;45.302;-122.946;2022-08-25T11:35:06;1;1;
55459;PMS5003;41326;45.302;-122.946;2022-08-25T11:37:36;1;1;
55459;PMS5003;41326;45.302;-122.946;2022-08-25T11:40:13;0;0;
55459;PMS5003;41326;45.302;-122.946;2022-08-25T11:42:38;0;0;
55459;PMS5003;41326;45.302;-122.946;2022-08-25T11:45:07;0;0;
55459;PMS5003;41326;45.302;-122.946;2022-08-25T11:47:39;2;1;
55459;PMS5003;41326;45.302;-122.946;2022-08-25T11:50:07;0;0;
55459;PMS5003;41326;45.302;-122.946;2022-08-25T11:55:07;0;0;
55459;PMS5003;41326;45.302;-122.946;2022-08-25T11:57:37;1;0;
55459;PMS5003;41326;45.302;-122.946;2022-08-25T12:00:09;0;0;
55459;PMS5003;41326;45.302;-122.946;2022-08-25T12:02:39;2;0;
55459;PMS5003;41326;45.302;-122.946;2022-08-25T12:05:09;0;0;
55459;PMS5003;41326;45.302;-122.946;2022-08-25T12:10:11;0;0;
55459;PMS5003;41326;45.302;-122.946;2022-08-25T12:15:13;0;0;
55459;PMS5003;41326;45.302;-122.946;2022-08-25T12:17:40;0;0;
55459;PMS5003;41326;45.302;-122.946;2022-08-25T12:20:10;0;0;
55459;PMS5003;41326;45.302;-122.946;2022-08-25T12:22:44;0;0;
55459;PMS5003;41326;45.302;-122.946;2022-08-25T12:25:15;0;0;
55459;PMS5003;41326;45.302;-122.946;2022-08-25T12:27:42;0;0;
55459;PMS5003;41326;45.302;-122.946;2022-08-25T12:30:14;0;0;
55459;PMS5003;41326;45.302;-122.946;2022-08-25T12:32:50;0;0;
55459;PMS5003;41326;45.302;-122.946;2022-08-25T12:35:16;0;0;
55459;PMS5003;41326;45.302;-122.946;2022-08-25T12:40:18;0;0;
55459;PMS5003;41326;45.302;-122.946;2022-08-25T12:42:44;0;0;
55459;PMS5003;41326;45.302;-122.946;2022-08-25T12:47:45;0;0;
55459;PMS5003;41326;45.302;-122.946;2022-08-25T12:52:45;0;0;
55459;PMS5003;41326;45.302;-122.946;2022-08-25T12:55:15;0;0;
55459;PMS5003;41326;45.302;-122.946;2022-08-25T12:57:49;0;0;
55459;PMS5003;41326;45.302;-122.946;2022-08-25T13:00:19;0;0;
55459;PMS5003;41326;45.302;-122.946;2022-08-25T13:02:52;0;0;
55459;PMS5003;41326;45.302;-122.946;2022-08-25T13:07:54;0;0;
55459;PMS5003;41326;45.302;-122.946;2022-08-25T13:10:24;0;0;
55459;PMS5003;41326;45.302;-122.946;2022-08-25T13:12:50;0;0;
55459;PMS5003;41326;45.302;-122.946;2022-08-25T13:17:49;0;0;
55459;PMS5003;41326;45.302;-122.946;2022-08-25T13:20:22;0;0;
55459;PMS5003;41326;45.302;-122.946;2022-08-25T13:22:50;0;0;
55459;PMS5003;41326;45.302;-122.946;2022-08-25T13:25:21;0;0;
55459;PMS5003;41326;45.302;-122.946;2022-08-25T13:27:52;0;0;
55459;PMS5003;41326;45.302;-122.946;2022-08-25T13:30:23;0;0;
55459;PMS5003;41326;45.302;-122.946;2022-08-25T13:32:50;0;0;
55459;PMS5003;41326;45.302;-122.946;2022-08-25T13:35:22;0;0;
55459;PMS5003;41326;45.302;-122.946;2022-08-25T13:37:51;0;0;
55459;PMS5003;41326;45.302;-122.946;2022-08-25T13:40:22;0;0;
55459;PMS5003;41326;45.302;-122.946;2022-08-25T13:42:53;0;0;
55459;PMS5003;41326;45.302;-122.946;2022-08-25T13:45:23;0;0;
55459;PMS5003;41326;45.302;-122.946;2022-08-25T13:47:52;0;0;
55459;PMS5003;41326;45.302;-122.946;2022-08-25T13:52:54;0;0;
55459;PMS5003;41326;45.302;-122.946;2022-08-25T13:55:24;0;0;
55459;PMS5003;41326;45.302;-122.946;2022-08-25T13:57:55;0;0;
55459;PMS5003;41326;45.302;-122.946;2022-08-25T14:00:27;0;0;
55459;PMS5003;41326;45.302;-122.946;2022-08-25T14:02:55;0;0;
55459;PMS5003;41326;45.302;-122.946;2022-08-25T14:05:31;0;0;
55459;PMS5003;41326;45.302;-122.946;2022-08-25T14:07:56;0;0;
55459;PMS5003;41326;45.302;-122.946;2022-08-25T14:10:31;0;0;
55459;PMS5003;41326;45.302;-122.946;2022-08-25T14:15:28;0;0;
55459;PMS5003;41326;45.302;-122.946;2022-08-25T14:17:59;0;0;
55459;PMS5003;41326;45.302;-122.946;2022-08-25T14:20:29;0;0;
55459;PMS5003;41326;45.302;-122.946;2022-08-25T14:22:59;0;0;
55459;PMS5003;41326;45.302;-122.946;2022-08-25T14:25:29;0;0;
55459;PMS5003;41326;45.302;-122.946;2022-08-25T14:28:03;0;0;
55459;PMS5003;41326;45.302;-122.946;2022-08-25T14:30:29;0;0;
55459;PMS5003;41326;45.302;-122.946;2022-08-25T14:32:59;0;0;
55459;PMS5003;41326;45.302;-122.946;2022-08-25T14:35:29;0;0;
55459;PMS5003;41326;45.302;-122.946;2022-08-25T14:38:01;0;0;
55459;PMS5003;41326;45.302;-122.946;2022-08-25T14:40:30;0;0;
55459;PMS5003;41326;45.302;-122.946;2022-08-25T14:43:00;0;0;
55459;PMS5003;41326;45.302;-122.946;2022-08-25T14:45:30;0;0;
55459;PMS5003;41326;45.302;-122.946;2022-08-25T14:48:03;0;0;
55459;PMS5003;41326;45.302;-122.946;2022-08-25T14:50:32;0;0;
55459;PMS5003;41326;45.302;-122.946;2022-08-25T14:53:02;0;0;
55459;PMS5003;41326;45.302;-122.946;2022-08-25T14:55:33;0;0;
55459;PMS5003;41326;45.302;-122.946;2022-08-25T14:58:03;0;0;
55459;PMS5003;41326;45.302;-122.946;2022-08-25T15:00:33;0;0;
55459;PMS5003;41326;45.302;-122.946;2022-08-25T15:03:03;0;0;
55459;PMS5003;41326;45.302;-122.946;2022-08-25T15:05:34;1;0;
55459;PMS5003;41326;45.302;-122.946;2022-08-25T15:08:04;0;0;
55459;PMS5003;41326;45.302;-122.946;2022-08-25T15:10:34;0;0;
55459;PMS5003;41326;45.302;-122.946;2022-08-25T15:13:05;0;0;
55459;PMS5003;41326;45.302;-122.946;2022-08-25T15:15:37;1;0;
55459;PMS5003;41326;45.302;-122.946;2022-08-25T15:18:05;0;0;
55459;PMS5003;41326;45.302;-122.946;2022-08-25T15:20:36;0;0;
55459;PMS5003;41326;45.302;-122.946;2022-08-25T15:23:06;0;0;
55459;PMS5003;41326;45.302;-122.946;2022-08-25T15:25:36;0;0;
55459;PMS5003;41326;45.302;-122.946;2022-08-25T15:28:07;0;0;
55459;PMS5003;41326;45.302;-122.946;2022-08-25T15:30:37;0;0;
55459;PMS5003;41326;45.302;-122.946;2022-08-25T15:33:07;0;0;
55459;PMS5003;41326;45.302;-122.946;2022-08-25T15:35:37;0;0;
55459;PMS5003;41326;45.302;-122.946;2022-08-25T15:38:08;0;0;
55459;PMS5003;41326;45.302;-122.946;2022-08-25T15:40:38;0;0;
55459;PMS5003;41326;45.302;-122.946;2022-08-25T15:43:09;0;0;
55459;PMS5003;41326;45.302;-122.946;2022-08-25T15:45:39;0;0;
55459;PMS5003;41326;45.302;-122.946;2022-08-25T15:48:09;0;0;
55459;PMS5003;41326;45.302;-122.946;2022-08-25T15:50:39;0;0;
55459;PMS5003;41326;45.302;-122.946;2022-08-25T15:53:10;0;0;
55459;PMS5003;41326;45.302;-122.946;2022-08-25T15:55:40;0;0;
55459;PMS5003;41326;45.302;-122.946;2022-08-25T15:58:11;0;0;
55459;PMS5003;41326;45.302;-122.946;2022-08-25T16:00:41;0;0;
55459;PMS5003;41326;45.302;-122.946;2022-08-25T16:03:12;0;0;
55459;PMS5003;41326;45.302;-122.946;2022-08-25T16:05:42;0;0;
55459;PMS5003;41326;45.302;-122.946;2022-08-25T16:08:12;0;0;
55459;PMS5003;41326;45.302;-122.946;2022-08-25T16:10:42;0;0;
55459;PMS5003;41326;45.302;-122.946;2022-08-25T16:13:12;0;0;
55459;PMS5003;41326;45.302;-122.946;2022-08-25T16:15:45;0;0;
55459;PMS5003;41326;45.302;-122.946;2022-08-25T16:18:13;0;0;
55459;PMS5003;41326;45.302;-122.946;2022-08-25T16:20:44;0;0;
55459;PMS5003;41326;45.302;-122.946;2022-08-25T16:23:15;0;0;
55459;PMS5003;41326;45.302;-122.946;2022-08-25T16:25:45;0;0;
55459;PMS5003;41326;45.302;-122.946;2022-08-25T16:28:15;0;0;
55459;PMS5003;41326;45.302;-122.946;2022-08-25T16:30:45;0;0;
55459;PMS5003;41326;45.302;-122.946;2022-08-25T16:33:15;0;0;
55459;PMS5003;41326;45.302;-122.946;2022-08-25T16:35:46;0;0;
55459;PMS5003;41326;45.302;-122.946;2022-08-25T16:38:16;0;0;
55459;PMS5003;41326;45.302;-122.946;2022-08-25T16:40:46;0;0;
55459;PMS5003;41326;45.302;-122.946;2022-08-25T16:43:16;0;0;
55459;PMS5003;41326;45.302;-122.946;2022-08-25T16:45:46;0;0;
55459;PMS5003;41326;45.302;-122.946;2022-08-25T16:48:17;1;0;
55459;PMS5003;41326;45.302;-122.946;2022-08-25T16:50:47;0;0;
55459;PMS5003;41326;45.302;-122.946;2022-08-25T16:53:18;0;0;
55459;PMS5003;41326;45.302;-122.946;2022-08-25T16:55:48;0;0;
55459;PMS5003;41326;45.302;-122.946;2022-08-25T16:58:18;0;0;